Time;durP1;ratioP1;P1;durP2;ratioP2;P2;SDS_P1;SDS_P2;PMS_P1;PMS_P2;Temp;Humidity;BMP_temperature;BMP_pressure;BME280_temperature;BME280_humidity;BME280_pressure;Samples;Min_cycle;Max_cycle;Signal;HPM_P1;HPM_P2
2023/05/23 00:00:37;;;;;;;26.77;16.90;;;13.70;99.90;;;;;;5110321;27;20391;-89
2023/05/23 00:03:03;;;;;;;28.13;17.55;;;13.70;99.90;;;;;;5109922;27;20422;-90
2023/05/23 00:05:29;;;;;;;27.60;17.97;;;13.60;99.90;;;;;;5110625;27;20749;-90
2023/05/23 00:07:54;;;;;;;27.70;18.13;;;13.60;99.90;;;;;;5109685;27;20425;-90
2023/05/23 00:10:21;;;;;;;29.30;18.98;;;13.60;99.90;;;;;;5127147;27;20775;-89
2023/05/23 00:12:46;;;;;;;31.50;19.58;;;13.60;99.90;;;;;;5109395;27;20402;-90
2023/05/23 00:15:13;;;;;;;33.63;19.00;;;13.40;99.90;;;;;;5109968;27;20467;-89
2023/05/23 00:17:38;;;;;;;32.80;19.38;;;13.80;99.90;;;;;;5109599;27;20957;-89
2023/05/23 00:20:10;;;;;;;32.27;17.93;;;13.70;99.90;;;;;;5109853;27;20478;-89
2023/05/23 00:22:38;;;;;;;31.00;17.60;;;13.30;99.90;;;;;;5110108;27;20487;-89
2023/05/23 00:25:05;;;;;;;26.90;17.42;;;13.30;99.90;;;;;;5109257;27;20410;-90
2023/05/23 00:27:30;;;;;;;29.95;16.48;;;13.20;99.90;;;;;;5109788;27;20398;-89
2023/05/23 00:29:56;;;;;;;27.10;15.30;;;13.30;99.90;;;;;;5109022;27;20405;-90
2023/05/23 00:32:21;;;;;;;29.45;15.35;;;13.30;99.90;;;;;;5110073;27;20403;-89
2023/05/23 00:34:47;;;;;;;26.03;14.60;;;13.30;99.90;;;;;;5109888;27;20403;-89
2023/05/23 00:37:14;;;;;;;28.90;14.63;;;13.30;99.90;;;;;;5109690;27;20398;-89
2023/05/23 00:39:39;;;;;;;26.77;14.30;;;13.30;99.90;;;;;;5109748;27;20889;-90
2023/05/23 00:42:06;;;;;;;27.02;14.45;;;13.20;99.90;;;;;;5108951;27;20448;-89
2023/05/23 00:44:32;;;;;;;27.93;14.50;;;13.20;99.90;;;;;;5109807;28;20426;-90
2023/05/23 00:46:58;;;;;;;26.60;14.05;;;13.20;99.90;;;;;;5109589;27;20488;-90
2023/05/23 00:49:26;;;;;;;30.13;14.45;;;13.10;99.90;;;;;;5109566;27;20395;-89
2023/05/23 00:51:52;;;;;;;30.80;14.60;;;13.30;99.90;;;;;;5126676;27;20749;-89
2023/05/23 00:54:22;;;;;;;26.87;14.30;;;13.00;99.90;;;;;;5109613;27;20474;-90
2023/05/23 00:56:48;;;;;;;31.33;14.73;;;13.00;99.90;;;;;;5109461;28;20407;-90
2023/05/23 00:59:15;;;;;;;29.97;15.57;;;13.40;99.90;;;;;;5108757;28;20976;-89
2023/05/23 01:01:45;;;;;;;35.25;15.55;;;13.00;99.90;;;;;;5109532;27;20402;-90
2023/05/23 01:04:12;;;;;;;30.80;15.63;;;12.90;99.90;;;;;;5108459;27;20502;-89
2023/05/23 01:06:38;;;;;;;29.17;15.50;;;12.90;99.90;;;;;;5109907;27;20398;-88
2023/05/23 01:09:03;;;;;;;27.73;15.27;;;12.80;99.90;;;;;;5108403;27;20417;-89
2023/05/23 01:11:37;;;;;;;33.20;16.40;;;12.80;99.90;;;;;;5108332;28;20900;-90
2023/05/23 01:14:11;;;;;;;32.80;16.53;;;12.70;99.90;;;;;;5108972;28;20901;-89
2023/05/23 01:17:00;;;;;;;34.42;16.45;;;12.80;99.90;;;;;;5108045;28;20760;-88
2023/05/23 01:19:47;;;;;;;26.35;16.10;;;12.80;99.90;;;;;;5109528;28;20399;-89
2023/05/23 01:23:04;;;;;;;32.63;16.65;;;12.80;99.90;;;;;;5108524;28;20426;-88
2023/05/23 01:26:17;;;;;;;32.67;15.95;;;12.80;99.90;;;;;;5029648;28;20577;-89
2023/05/23 01:28:46;;;;;;;29.60;15.70;;;12.80;99.90;;;;;;5088169;28;20413;-90
2023/05/23 01:31:12;;;;;;;34.67;16.33;;;12.80;99.90;;;;;;5088442;28;20401;-89
2023/05/23 01:33:40;;;;;;;32.90;16.38;;;13.20;99.90;;;;;;5088043;28;20475;-90
2023/05/23 01:36:06;;;;;;;31.08;15.10;;;12.80;99.90;;;;;;5088361;28;20971;-88
2023/05/23 01:38:31;;;;;;;29.05;15.27;;;12.70;99.90;;;;;;5087924;28;20408;-89
2023/05/23 01:40:57;;;;;;;28.80;13.98;;;12.80;99.90;;;;;;5088782;28;20408;-89
2023/05/23 01:43:24;;;;;;;31.57;14.13;;;12.70;99.90;;;;;;5087858;28;20428;-89
2023/05/23 01:45:52;;;;;;;26.67;13.52;;;12.80;99.90;;;;;;5088446;28;20451;-90
2023/05/23 01:48:19;;;;;;;31.03;13.43;;;12.80;99.90;;;;;;5087985;28;20404;-89
2023/05/23 01:50:45;;;;;;;26.48;12.30;;;12.70;99.90;;;;;;5105142;28;20751;-89
2023/05/23 01:53:15;;;;;;;27.20;13.25;;;12.70;99.90;;;;;;5088251;28;20469;-88
2023/05/23 01:55:41;;;;;;;26.70;11.60;;;12.90;99.90;;;;;;5088062;28;20473;-88
2023/05/23 01:58:07;;;;;;;23.80;11.48;;;13.00;99.90;;;;;;5088563;28;20408;-88
2023/05/23 02:00:33;;;;;;;29.42;11.35;;;12.60;99.90;;;;;;5087704;28;20404;-88
2023/05/23 02:02:59;;;;;;;26.98;10.85;;;12.60;99.90;;;;;;5088399;28;20461;-89
2023/05/23 02:05:26;;;;;;;25.85;9.85;;;12.60;99.90;;;;;;5087555;28;20404;-89
2023/05/23 02:07:51;;;;;;;23.47;9.90;;;12.60;99.90;;;;;;5088031;28;20454;-89
2023/05/23 02:10:18;;;;;;;24.27;9.70;;;12.60;99.90;;;;;;5088416;28;20393;-88
2023/05/23 02:12:44;;;;;;;21.90;9.55;;;12.60;99.90;;;;;;5087610;28;20495;-88
2023/05/23 02:15:10;;;;;;;20.67;8.90;;;12.60;99.90;;;;;;5088323;28;20475;-88
2023/05/23 02:17:37;;;;;;;24.00;9.40;;;12.60;99.90;;;;;;5087238;28;20408;-88
2023/05/23 02:20:03;;;;;;;23.83;9.18;;;13.00;99.90;;;;;;5105171;28;20400;-88
2023/05/23 02:22:29;;;;;;;23.45;9.50;;;12.60;99.90;;;;;;5106904;28;20491;-88
2023/05/23 02:24:55;;;;;;;24.05;9.25;;;12.90;99.90;;;;;;5104959;27;20518;-88
2023/05/23 02:27:20;;;;;;;22.07;8.60;;;12.60;99.90;;;;;;5111639;27;20401;-89
2023/05/23 02:29:46;;;;;;;23.98;9.20;;;12.60;99.90;;;;;;5111345;27;20402;-90
2023/05/23 02:32:12;;;;;;;23.97;9.77;;;12.60;99.90;;;;;;5112278;27;20390;-89
2023/05/23 02:34:37;;;;;;;24.95;10.00;;;12.70;99.90;;;;;;5111277;27;20805;-88
2023/05/23 02:37:03;;;;;;;23.38;10.23;;;12.60;99.90;;;;;;5112137;27;20399;-89
2023/05/23 02:39:29;;;;;;;23.13;9.47;;;12.60;99.90;;;;;;5111225;27;20395;-87
2023/05/23 02:41:54;;;;;;;21.03;9.17;;;12.60;99.90;;;;;;5111821;27;20398;-89
2023/05/23 02:44:20;;;;;;;21.87;9.17;;;12.60;99.90;;;;;;5128161;27;20924;-88
2023/05/23 02:46:46;;;;;;;20.87;8.80;;;12.50;99.90;;;;;;5111332;27;20443;-88
2023/05/23 02:49:11;;;;;;;23.40;9.45;;;12.50;99.90;;;;;;5111182;27;20411;-89
2023/05/23 02:51:37;;;;;;;25.33;9.27;;;12.70;99.90;;;;;;5111111;27;21065;-89
2023/05/23 02:54:02;;;;;;;25.50;9.93;;;12.60;99.90;;;;;;5128777;27;20411;-88
2023/05/23 02:56:28;;;;;;;21.20;9.30;;;12.70;99.90;;;;;;5111027;27;20398;-90
2023/05/23 02:58:54;;;;;;;22.65;9.07;;;12.50;99.90;;;;;;5111990;27;20620;-88
2023/05/23 03:01:19;;;;;;;24.48;8.60;;;12.80;99.90;;;;;;5110933;27;20463;-89
2023/05/23 03:03:45;;;;;;;18.37;8.00;;;12.50;99.90;;;;;;5111674;27;20428;-91
2023/05/23 03:06:13;;;;;;;20.70;7.60;;;12.50;99.90;;;;;;5111175;27;20394;-90
2023/05/23 03:08:40;;;;;;;18.50;7.63;;;12.50;99.90;;;;;;5111215;27;20410;-89
2023/05/23 03:11:06;;;;;;;16.17;6.97;;;12.50;99.90;;;;;;5111628;27;20394;-90
2023/05/23 03:13:31;;;;;;;18.43;6.90;;;12.50;99.90;;;;;;5110793;27;20961;-89
2023/05/23 03:15:57;;;;;;;20.92;6.70;;;12.50;99.90;;;;;;5128564;27;20403;-89
2023/05/23 03:18:22;;;;;;;18.67;6.37;;;12.50;99.90;;;;;;5110999;27;21005;-90
2023/05/23 03:20:48;;;;;;;16.02;5.35;;;12.50;99.90;;;;;;5111267;27;20395;-89
2023/05/23 03:23:14;;;;;;;16.07;5.33;;;12.50;99.90;;;;;;5110468;27;20426;-89
2023/05/23 03:25:39;;;;;;;15.57;5.30;;;12.50;99.90;;;;;;5110645;27;20826;-88
2023/05/23 03:28:05;;;;;;;19.92;5.32;;;12.40;99.90;;;;;;5110950;27;20479;-89
2023/05/23 03:30:30;;;;;;;17.33;5.10;;;12.40;99.90;;;;;;5111338;27;20485;-90
2023/05/23 03:32:56;;;;;;;18.88;5.68;;;12.40;99.90;;;;;;5110696;27;20461;-89
2023/05/23 03:35:21;;;;;;;15.97;5.90;;;12.40;99.90;;;;;;5110204;27;20398;-89
2023/05/23 03:37:47;;;;;;;18.85;7.18;;;12.30;99.90;;;;;;5128363;27;20497;-89
2023/05/23 03:40:13;;;;;;;17.87;8.03;;;12.50;99.90;;;;;;5109958;27;20405;-89
2023/05/23 03:42:38;;;;;;;18.35;8.35;;;12.20;99.90;;;;;;5111243;27;20535;-89
2023/05/23 03:45:05;;;;;;;18.60;8.67;;;12.20;99.90;;;;;;5110506;27;20821;-90
2023/05/23 03:47:30;;;;;;;18.90;8.90;;;12.20;99.90;;;;;;5110352;27;20402;-89
2023/05/23 03:49:56;;;;;;;18.07;8.70;;;12.10;99.90;;;;;;5110466;27;20403;-89
2023/05/23 03:52:22;;;;;;;20.42;8.40;;;12.30;99.90;;;;;;5110191;27;20923;-90
2023/05/23 03:54:48;;;;;;;16.27;7.55;;;12.10;99.90;;;;;;5110731;27;20390;-88
2023/05/23 03:57:13;;;;;;;16.90;6.63;;;12.20;99.90;;;;;;5109759;27;20398;-88
2023/05/23 03:59:39;;;;;;;16.48;6.60;;;12.10;99.90;;;;;;5110821;27;20431;-90
2023/05/23 04:02:05;;;;;;;17.88;6.72;;;12.10;99.90;;;;;;5109994;27;20411;-90
2023/05/23 04:04:31;;;;;;;19.05;6.65;;;12.40;99.90;;;;;;5110184;27;20916;-90
2023/05/23 04:06:57;;;;;;;17.90;6.00;;;12.20;99.90;;;;;;5110234;27;20881;-89
2023/05/23 04:09:23;;;;;;;16.00;5.95;;;12.20;99.90;;;;;;5110419;27;20956;-88
2023/05/23 04:11:49;;;;;;;16.85;5.63;;;12.20;99.90;;;;;;5127751;27;20421;-89
2023/05/23 04:14:16;;;;;;;16.13;5.90;;;12.30;99.90;;;;;;5109738;27;20406;-90
2023/05/23 04:16:43;;;;;;;16.70;5.93;;;12.20;99.90;;;;;;5111116;27;20821;-89
2023/05/23 04:19:09;;;;;;;17.77;6.40;;;12.20;99.90;;;;;;5109706;27;20889;-91
2023/05/23 04:21:35;;;;;;;17.07;5.70;;;12.20;99.90;;;;;;5110214;27;20403;-91
2023/05/23 04:24:02;;;;;;;17.35;6.38;;;12.30;99.90;;;;;;5109009;27;20426;-90
2023/05/23 04:26:27;;;;;;;17.50;6.13;;;12.40;99.90;;;;;;5109851;27;20417;-89
2023/05/23 04:28:53;;;;;;;16.13;6.33;;;12.00;99.90;;;;;;5109898;27;20967;-87
2023/05/23 04:31:21;;;;;;;13.80;5.60;;;12.00;99.90;;;;;;5109677;27;20410;-88
2023/05/23 04:33:50;;;;;;;13.93;5.80;;;11.90;99.90;;;;;;5127013;27;20430;-88
2023/05/23 04:36:17;;;;;;;11.25;5.60;;;11.90;99.90;;;;;;5109411;27;20857;-89
2023/05/23 04:38:42;;;;;;;12.88;5.68;;;11.80;99.90;;;;;;5109884;27;20442;-89
2023/05/23 04:41:10;;;;;;;16.47;6.23;;;11.80;99.90;;;;;;5109609;27;20445;-88
2023/05/23 04:43:41;;;;;;;16.33;6.50;;;11.70;99.90;;;;;;5109628;27;20479;-89
2023/05/23 04:46:09;;;;;;;14.98;6.35;;;12.00;99.90;;;;;;5109096;27;20410;-88
2023/05/23 04:48:37;;;;;;;16.65;6.18;;;11.70;99.90;;;;;;5109014;27;20953;-90
2023/05/23 04:51:07;;;;;;;17.00;6.40;;;11.70;99.90;;;;;;5109921;27;20885;-89
2023/05/23 04:53:33;;;;;;;17.35;6.70;;;11.60;99.90;;;;;;5109092;27;20417;-87
2023/05/23 04:55:59;;;;;;;14.85;5.95;;;11.60;99.90;;;;;;5109888;27;20790;-88
2023/05/23 04:58:25;;;;;;;14.95;6.05;;;11.60;99.90;;;;;;5109193;27;20579;-89
2023/05/23 05:00:50;;;;;;;16.27;6.13;;;11.60;99.90;;;;;;5109306;27;20489;-87
2023/05/23 05:03:16;;;;;;;17.38;6.78;;;11.60;99.90;;;;;;5109106;27;20501;-89
2023/05/23 05:05:42;;;;;;;14.07;6.43;;;11.70;99.90;;;;;;5109033;27;20387;-90
2023/05/23 05:08:07;;;;;;;16.17;6.37;;;11.50;99.90;;;;;;5109383;27;20830;-89
2023/05/23 05:10:33;;;;;;;15.40;6.63;;;11.50;99.90;;;;;;5108553;28;20398;-89
2023/05/23 05:12:58;;;;;;;15.53;6.43;;;11.40;99.90;;;;;;5109902;28;20616;-89
2023/05/23 05:15:24;;;;;;;15.38;6.38;;;11.40;99.90;;;;;;5109055;28;20391;-89
2023/05/23 05:17:50;;;;;;;18.05;6.03;;;11.50;99.90;;;;;;5109384;28;20409;-90
2023/05/23 05:20:16;;;;;;;15.13;5.30;;;11.30;99.90;;;;;;5108890;28;20901;-89
2023/05/23 05:22:42;;;;;;;11.57;5.00;;;11.50;99.90;;;;;;5108761;28;20398;-90
2023/05/23 05:25:09;;;;;;;18.10;5.95;;;11.40;99.90;;;;;;5108687;28;20463;-90
2023/05/23 05:27:38;;;;;;;16.40;5.70;;;11.50;99.90;;;;;;5109536;28;20436;-88
2023/05/23 05:30:24;;;;;;;13.75;5.53;;;11.50;99.90;;;;;;5109772;28;20823;-89
2023/05/23 05:32:50;;;;;;;14.07;5.22;;;11.60;99.90;;;;;;5108170;28;20922;-90
2023/05/23 05:35:16;;;;;;;14.02;5.03;;;11.50;99.90;;;;;;5109320;28;20870;-90
2023/05/23 05:37:42;;;;;;;15.77;4.95;;;11.50;99.90;;;;;;5108777;28;20429;-88
2023/05/23 05:40:08;;;;;;;12.90;4.68;;;11.50;99.90;;;;;;5109469;28;20391;-88
2023/05/23 05:42:34;;;;;;;14.35;4.63;;;11.50;99.90;;;;;;5109117;28;20407;-88
2023/05/23 05:45:00;;;;;;;16.40;4.20;;;11.50;99.90;;;;;;5108075;28;20471;-88
2023/05/23 05:47:26;;;;;;;12.65;4.10;;;11.50;99.90;;;;;;5108935;28;20893;-88
2023/05/23 05:49:51;;;;;;;13.37;3.33;;;11.40;99.90;;;;;;5125426;28;20684;-91
2023/05/23 05:52:17;;;;;;;12.20;3.42;;;11.40;99.90;;;;;;5108873;28;20929;-88
2023/05/23 05:54:43;;;;;;;13.50;3.40;;;11.30;99.90;;;;;;5108490;28;20403;-89
2023/05/23 05:57:08;;;;;;;12.67;3.20;;;11.30;99.90;;;;;;5111467;27;20395;-91
2023/05/23 05:59:34;;;;;;;14.48;3.80;;;11.30;99.90;;;;;;5112877;27;20490;-90
2023/05/23 06:02:00;;;;;;;13.47;3.37;;;11.30;99.90;;;;;;5112578;27;20410;-90
2023/05/23 06:04:25;;;;;;;13.13;3.53;;;11.40;99.90;;;;;;5112838;27;20426;-91
2023/05/23 06:06:51;;;;;;;17.38;3.83;;;11.70;99.90;;;;;;5111978;27;20435;-88
2023/05/23 06:09:17;;;;;;;13.90;3.50;;;11.50;99.90;;;;;;5113300;27;20399;-90
2023/05/23 06:11:42;;;;;;;14.93;3.65;;;11.40;99.90;;;;;;5112121;27;20391;-90
2023/05/23 06:14:08;;;;;;;13.98;3.40;;;11.60;99.90;;;;;;5112849;27;20399;-88
2023/05/23 06:16:34;;;;;;;15.57;3.17;;;11.70;99.90;;;;;;5112001;27;20399;-89
2023/05/23 06:19:00;;;;;;;13.77;2.92;;;11.80;99.90;;;;;;5112135;27;20402;-89
2023/05/23 06:21:26;;;;;;;14.73;3.07;;;11.80;99.90;;;;;;5112229;27;20402;-89
2023/05/23 06:23:52;;;;;;;14.48;3.45;;;11.80;99.90;;;;;;5111511;27;20433;-89
2023/05/23 06:26:17;;;;;;;15.07;3.20;;;11.80;99.90;;;;;;5112462;27;20493;-89
2023/05/23 06:28:43;;;;;;;16.73;3.67;;;11.80;99.90;;;;;;5111948;27;20403;-89
2023/05/23 06:31:09;;;;;;;18.02;3.72;;;11.90;99.90;;;;;;5112138;27;20402;-91
2023/05/23 06:33:34;;;;;;;19.63;3.73;;;12.00;99.90;;;;;;5111720;27;20889;-91
2023/05/23 06:36:00;;;;;;;15.48;3.55;;;12.10;99.90;;;;;;5112210;27;20402;-90
2023/05/23 06:38:28;;;;;;;15.80;3.75;;;12.30;99.90;;;;;;5111793;27;20387;-91
2023/05/23 06:40:54;;;;;;;18.50;3.75;;;12.40;99.90;;;;;;5112084;27;20398;-89
2023/05/23 06:43:19;;;;;;;18.33;3.50;;;12.50;99.90;;;;;;5112283;27;20578;-89
2023/05/23 06:45:48;;;;;;;15.55;4.05;;;12.50;99.90;;;;;;5111413;27;20414;-89
2023/05/23 06:48:14;;;;;;;15.93;3.20;;;12.50;99.90;;;;;;5111868;27;20729;-89
2023/05/23 06:50:40;;;;;;;15.10;3.43;;;12.60;99.90;;;;;;5111562;27;20425;-89
2023/05/23 06:53:06;;;;;;;15.70;2.75;;;12.60;99.90;;;;;;5111799;27;20412;-91
2023/05/23 06:55:32;;;;;;;17.13;3.10;;;12.70;99.90;;;;;;5111364;27;20460;-90
2023/05/23 06:57:59;;;;;;;18.00;3.30;;;12.70;99.90;;;;;;5111554;27;20955;-89
2023/05/23 07:00:25;;;;;;;19.38;3.50;;;12.60;99.90;;;;;;5111139;27;20411;-88
2023/05/23 07:02:51;;;;;;;20.17;3.80;;;12.70;99.90;;;;;;5110683;27;20406;-89
2023/05/23 07:05:16;;;;;;;18.03;2.77;;;12.70;99.90;;;;;;5111808;27;20497;-88
2023/05/23 07:07:42;;;;;;;14.03;2.40;;;12.50;99.90;;;;;;5110931;27;20390;-91
2023/05/23 07:10:09;;;;;;;16.90;3.00;;;12.50;99.90;;;;;;5111599;27;20406;-90
2023/05/23 07:12:35;;;;;;;15.27;3.03;;;12.50;99.90;;;;;;5110981;27;20481;-87
2023/05/23 07:15:01;;;;;;;16.03;2.97;;;12.50;99.90;;;;;;5111286;27;20441;-88
2023/05/23 07:17:28;;;;;;;16.42;3.03;;;12.60;99.90;;;;;;5111132;27;20418;-89
2023/05/23 07:19:54;;;;;;;16.10;3.03;;;12.60;99.90;;;;;;5110575;27;20486;-89
2023/05/23 07:22:20;;;;;;;20.80;3.40;;;12.70;99.90;;;;;;5111159;27;20532;-88
2023/05/23 07:24:46;;;;;;;20.33;3.77;;;12.60;99.90;;;;;;5110375;27;20418;-89
2023/05/23 07:27:11;;;;;;;20.02;3.28;;;12.70;99.90;;;;;;5111334;27;20981;-90
2023/05/23 07:29:37;;;;;;;21.08;3.25;;;12.80;99.90;;;;;;5110447;27;20487;-89
2023/05/23 07:32:03;;;;;;;16.57;3.20;;;12.80;99.90;;;;;;5111125;27;20403;-90
2023/05/23 07:34:29;;;;;;;15.45;2.72;;;13.00;99.90;;;;;;5127898;27;20443;-91
2023/05/23 07:36:55;;;;;;;17.05;3.00;;;13.10;99.90;;;;;;5128033;27;20742;-90
2023/05/23 07:39:23;;;;;;;14.70;3.50;;;13.00;99.90;;;;;;5111427;27;20424;-90
2023/05/23 07:41:49;;;;;;;14.53;3.03;;;13.30;99.90;;;;;;5110639;27;20411;-90
2023/05/23 07:44:15;;;;;;;18.77;3.10;;;13.40;99.90;;;;;;5110865;27;20514;-91
2023/05/23 07:46:41;;;;;;;15.77;3.00;;;13.50;99.90;;;;;;5110306;27;20406;-90
2023/05/23 07:49:06;;;;;;;17.30;3.23;;;13.20;99.90;;;;;;5111115;27;20417;-91
2023/05/23 07:51:32;;;;;;;14.38;3.08;;;13.60;99.90;;;;;;5110370;27;20390;-89
2023/05/23 07:53:58;;;;;;;19.35;3.47;;;13.40;99.90;;;;;;5110590;27;20932;-90
2023/05/23 07:56:23;;;;;;;14.60;3.50;;;13.20;99.90;;;;;;5110284;27;20406;-89
2023/05/23 07:58:49;;;;;;;14.40;3.22;;;13.90;99.90;;;;;;5110239;27;20746;-89
2023/05/23 08:01:15;;;;;;;16.23;3.10;;;13.50;99.90;;;;;;5111123;27;20421;-90
2023/05/23 08:03:41;;;;;;;14.40;3.08;;;13.70;99.90;;;;;;5110076;27;20505;-88
2023/05/23 08:06:07;;;;;;;15.80;2.95;;;13.50;99.90;;;;;;5110878;27;20980;-89
2023/05/23 08:08:33;;;;;;;14.57;3.05;;;13.50;99.90;;;;;;5110068;27;20890;-90
2023/05/23 08:10:59;;;;;;;12.43;2.90;;;13.60;99.90;;;;;;5110659;27;20406;-91
2023/05/23 08:13:25;;;;;;;15.73;2.70;;;13.50;99.90;;;;;;5109399;27;20403;-90
2023/05/23 08:15:51;;;;;;;16.40;3.55;;;13.50;99.90;;;;;;5110289;27;20410;-90
2023/05/23 08:18:16;;;;;;;14.63;3.43;;;13.70;99.90;;;;;;5109786;27;20477;-88
2023/05/23 08:20:42;;;;;;;13.77;2.83;;;13.60;99.90;;;;;;5108863;27;20399;-90
2023/05/23 08:23:08;;;;;;;14.27;2.80;;;13.80;99.90;;;;;;5110436;27;20422;-88
2023/05/23 08:25:34;;;;;;;17.30;3.17;;;14.20;99.90;;;;;;5109061;27;20406;-89
2023/05/23 08:28:00;;;;;;;14.40;2.90;;;13.90;99.90;;;;;;5109983;27;20486;-90
2023/05/23 08:30:27;;;;;;;16.27;2.95;;;14.00;99.90;;;;;;5109416;27;20403;-91
2023/05/23 08:32:54;;;;;;;14.95;2.88;;;14.40;99.90;;;;;;5109890;27;20478;-90
2023/05/23 08:35:20;;;;;;;15.25;3.20;;;14.70;99.90;;;;;;5109720;27;20401;-89
2023/05/23 08:37:46;;;;;;;15.90;3.40;;;15.10;99.90;;;;;;5109398;27;20598;-90
2023/05/23 08:40:20;;;;;;;17.73;3.53;;;15.20;99.90;;;;;;5109683;27;20391;-90
2023/05/23 08:42:47;;;;;;;14.88;3.10;;;15.20;99.90;;;;;;5109323;27;20409;-88
2023/05/23 08:45:13;;;;;;;14.73;2.85;;;15.30;99.90;;;;;;5110334;27;20807;-89
2023/05/23 08:47:43;;;;;;;15.00;3.10;;;15.30;99.90;;;;;;5109127;27;20844;-89
2023/05/23 08:50:16;;;;;;;14.50;2.53;;;15.30;99.90;;;;;;5109443;27;20422;-90
2023/05/23 08:52:59;;;;;;;13.27;2.63;;;15.20;99.90;;;;;;5109548;27;21019;-89
2023/05/23 08:55:29;;;;;;;12.55;2.30;;;14.90;99.90;;;;;;5109153;27;20467;-90
2023/05/23 08:57:56;;;;;;;13.07;2.67;;;14.70;99.90;;;;;;5109615;27;20422;-89
2023/05/23 09:00:24;;;;;;;16.33;2.83;;;14.60;99.90;;;;;;5108724;27;20391;-89
2023/05/23 09:02:50;;;;;;;16.98;2.85;;;14.90;99.90;;;;;;5109269;28;20490;-90
2023/05/23 09:05:16;;;;;;;17.73;3.42;;;15.30;99.90;;;;;;5109093;27;20407;-90
2023/05/23 09:07:45;;;;;;;17.20;3.17;;;15.30;99.90;;;;;;5109381;27;20391;-90
2023/05/23 09:10:13;;;;;;;16.77;3.30;;;15.40;99.90;;;;;;5109178;28;20406;-91
2023/05/23 09:12:42;;;;;;;15.23;2.97;;;15.10;99.90;;;;;;5126337;27;20873;-90
2023/05/23 09:15:09;;;;;;;14.10;2.80;;;15.10;99.90;;;;;;5109089;28;20855;-90
2023/05/23 09:17:36;;;;;;;17.92;2.88;;;14.90;99.90;;;;;;5108734;28;20490;-90
2023/05/23 09:20:04;;;;;;;16.55;2.78;;;14.80;99.90;;;;;;5109127;28;20746;-90
2023/05/23 09:22:30;;;;;;;18.08;3.17;;;14.80;99.90;;;;;;5108551;28;20398;-90
2023/05/23 09:24:56;;;;;;;17.70;3.00;;;14.90;99.90;;;;;;5108950;28;20422;-90
2023/05/23 09:27:22;;;;;;;14.65;2.50;;;15.30;99.90;;;;;;5125899;28;20399;-89
2023/05/23 09:29:51;;;;;;;13.00;2.30;;;15.40;99.90;;;;;;5108549;28;20410;-90
2023/05/23 09:32:18;;;;;;;15.68;2.80;;;15.60;99.90;;;;;;5111802;27;20434;-88
2023/05/23 09:34:55;;;;;;;11.38;2.25;;;15.30;97.10;;;;;;5113094;27;20477;-90
2023/05/23 09:37:23;;;;;;;12.32;2.20;;;15.10;99.90;;;;;;5113012;27;20922;-89
2023/05/23 09:39:49;;;;;;;12.57;2.50;;;15.20;99.90;;;;;;5112797;27;20399;-88
2023/05/23 09:42:24;;;;;;;15.35;2.47;;;15.40;99.90;;;;;;5112699;27;20443;-89
2023/05/23 09:44:50;;;;;;;14.45;2.55;;;16.00;99.90;;;;;;5112710;27;20423;-91
2023/05/23 09:47:16;;;;;;;13.43;2.53;;;15.60;97.80;;;;;;5112866;27;20410;-88
2023/05/23 09:49:46;;;;;;;13.53;2.10;;;15.20;95.40;;;;;;5112691;27;20471;-89
2023/05/23 09:52:12;;;;;;;14.33;2.93;;;15.10;98.20;;;;;;5112204;27;20620;-91
2023/05/23 09:54:38;;;;;;;13.00;2.22;;;15.10;99.90;;;;;;5113483;27;20494;-90
2023/05/23 09:57:09;;;;;;;15.20;2.45;;;15.40;99.30;;;;;;5112210;27;20394;-90
2023/05/23 09:59:39;;;;;;;12.38;2.22;;;15.50;95.40;;;;;;5113026;27;20449;-88
2023/05/23 10:02:07;;;;;;;12.88;2.85;;;15.40;96.30;;;;;;5112343;27;20474;-90
2023/05/23 10:04:34;;;;;;;14.68;2.60;;;15.40;97.80;;;;;;5112107;27;20414;-90
2023/05/23 10:07:14;;;;;;;12.07;2.25;;;15.30;99.10;;;;;;5112656;27;20399;-90
2023/05/23 10:09:42;;;;;;;15.45;2.80;;;15.30;96.70;;;;;;5112224;27;20409;-89
2023/05/23 10:12:40;;;;;;;13.48;2.35;;;15.30;99.90;;;;;;5112545;27;20395;-91
2023/05/23 10:15:08;;;;;;;11.88;2.20;;;15.40;99.70;;;;;;5112321;27;20459;-90
2023/05/23 10:18:08;;;;;;;10.40;2.10;;;15.50;96.80;;;;;;5111915;27;20430;-90
2023/05/23 10:20:38;;;;;;;12.32;2.47;;;15.90;96.70;;;;;;5108391;27;20399;-90
2023/05/23 10:23:04;;;;;;;12.02;2.47;;;16.70;95.10;;;;;;5111469;27;20395;-90
2023/05/23 10:25:30;;;;;;;13.45;2.47;;;16.50;90.50;;;;;;5111031;28;20403;-91
2023/05/23 10:27:58;;;;;;;14.00;2.58;;;16.60;97.30;;;;;;5110856;28;20432;-89
2023/05/23 10:30:27;;;;;;;11.73;2.10;;;16.60;96.20;;;;;;5110747;28;20453;-89
2023/05/23 10:32:57;;;;;;;13.15;2.50;;;16.50;93.60;;;;;;5111356;28;20810;-90
2023/05/23 10:35:53;;;;;;;11.77;2.10;;;16.20;89.40;;;;;;5110158;28;20399;-90
2023/05/23 10:38:48;;;;;;;11.57;1.85;;;16.10;84.60;;;;;;5110631;28;20410;-89
2023/05/23 10:41:22;;;;;;;11.32;1.77;;;16.20;87.00;;;;;;5110640;28;20398;-88
2023/05/23 10:44:09;;;;;;;14.55;2.47;;;16.10;88.10;;;;;;5109896;28;20531;-90
2023/05/23 10:46:56;;;;;;;13.65;2.28;;;15.90;89.10;;;;;;5111093;28;20486;-90
2023/05/23 10:49:43;;;;;;;15.63;2.72;;;15.90;96.30;;;;;;5110484;28;20403;-90
2023/05/23 10:52:10;;;;;;;15.85;3.28;;;16.00;99.00;;;;;;5109806;28;20456;-89
2023/05/23 10:54:51;;;;;;;13.45;2.42;;;16.40;98.70;;;;;;5110326;28;20435;-91
2023/05/23 10:57:19;;;;;;;11.45;2.17;;;16.70;93.30;;;;;;5109985;28;20403;-89
2023/05/23 10:59:45;;;;;;;12.90;2.78;;;16.50;85.90;;;;;;5110598;28;20905;-90
2023/05/23 11:02:18;;;;;;;13.75;2.60;;;16.40;86.90;;;;;;5110007;28;20436;-90
2023/05/23 11:04:44;;;;;;;15.47;2.63;;;16.20;92.30;;;;;;5109590;28;20797;-92
2023/05/23 11:07:31;;;;;;;12.75;2.40;;;15.90;93.90;;;;;;5110070;28;20448;-89
2023/05/23 11:10:10;;;;;;;14.07;2.40;;;16.10;97.00;;;;;;5109707;28;20409;-89
2023/05/23 11:12:44;;;;;;;11.85;2.28;;;16.50;90.10;;;;;;5109773;28;20403;-89
2023/05/23 11:15:16;;;;;;;12.75;2.20;;;17.10;93.30;;;;;;5109554;28;20446;-89
2023/05/23 11:17:56;;;;;;;11.85;1.70;;;17.10;91.30;;;;;;5109673;28;20446;-90
2023/05/23 11:20:26;;;;;;;8.63;1.80;;;16.80;76.50;;;;;;5110180;28;20917;-90
2023/05/23 11:23:01;;;;;;;9.77;1.70;;;16.80;84.80;;;;;;5109993;28;20838;-89
2023/05/23 11:25:46;;;;;;;10.93;1.80;;;16.90;82.90;;;;;;5063765;27;1789343;-89
2023/05/23 11:28:12;;;;;;;10.60;2.30;;;17.30;89.80;;;;;;5110059;27;20498;-89
2023/05/23 11:30:38;;;;;;;11.33;2.10;;;17.40;72.00;;;;;;5111147;27;20773;-89
2023/05/23 11:33:12;;;;;;;9.93;1.95;;;17.40;76.20;;;;;;5110910;27;20818;-90
2023/05/23 11:35:39;;;;;;;9.90;1.77;;;17.60;83.00;;;;;;5110384;27;20932;-89
2023/05/23 11:38:05;;;;;;;11.30;1.60;;;17.40;64.60;;;;;;5111027;27;20926;-89
2023/05/23 11:40:32;;;;;;;9.63;1.67;;;17.40;63.70;;;;;;5109871;27;20391;-89
2023/05/23 11:42:58;;;;;;;11.18;1.80;;;17.30;71.40;;;;;;5110388;27;20799;-90
2023/05/23 11:45:26;;;;;;;8.95;1.70;;;17.40;71.70;;;;;;5110295;27;20451;-90
2023/05/23 11:47:51;;;;;;;10.48;2.10;;;17.60;66.10;;;;;;5110738;27;20398;-88
2023/05/23 11:50:19;;;;;;;9.20;1.60;;;18.10;78.90;;;;;;5110207;27;20823;-89
2023/05/23 11:52:50;;;;;;;10.90;1.70;;;18.80;66.00;;;;;;5110090;27;20391;-89
2023/05/23 11:55:17;;;;;;;11.60;2.17;;;18.50;57.80;;;;;;5126891;27;20448;-89
2023/05/23 11:57:43;;;;;;;12.40;2.25;;;18.50;65.60;;;;;;5109985;27;20403;-90
2023/05/23 12:00:10;;;;;;;10.80;2.08;;;18.60;75.30;;;;;;5110495;27;20395;-91
2023/05/23 12:02:43;;;;;;;10.32;2.00;;;18.70;67.40;;;;;;5109985;27;20896;-90
2023/05/23 12:05:10;;;;;;;12.77;2.03;;;18.80;59.80;;;;;;5110034;27;20418;-89
2023/05/23 12:07:43;;;;;;;13.83;2.60;;;18.30;59.70;;;;;;5110073;27;20407;-89
2023/05/23 12:10:10;;;;;;;11.93;2.40;;;18.00;61.50;;;;;;5109829;27;20407;-89
2023/05/23 12:12:36;;;;;;;10.68;1.60;;;18.20;79.10;;;;;;5110309;27;20414;-90
2023/05/23 12:15:02;;;;;;;11.35;1.85;;;18.80;63.00;;;;;;5109886;27;20412;-88
2023/05/23 12:17:28;;;;;;;12.07;2.30;;;18.80;61.30;;;;;;5109993;27;20915;-88
2023/05/23 12:19:53;;;;;;;13.07;1.80;;;18.50;57.00;;;;;;5109389;27;20434;-89
2023/05/23 12:22:25;;;;;;;12.40;1.60;;;18.70;58.80;;;;;;5109690;27;20818;-91
2023/05/23 12:24:55;;;;;;;10.38;1.55;;;18.50;63.30;;;;;;5109570;27;20464;-89
2023/05/23 12:27:34;;;;;;;8.95;1.75;;;18.60;62.50;;;;;;5109476;27;20491;-89
2023/05/23 12:30:08;;;;;;;11.97;2.10;;;18.70;63.90;;;;;;5109957;27;20445;-90
2023/05/23 12:32:38;;;;;;;11.20;2.55;;;18.60;59.60;;;;;;5126508;27;20410;-90
2023/05/23 12:35:04;;;;;;;14.55;2.10;;;18.30;60.90;;;;;;5109568;27;20398;-90
2023/05/23 12:37:30;;;;;;;13.18;2.00;;;18.20;69.20;;;;;;5109350;27;20413;-90
2023/05/23 12:39:56;;;;;;;11.40;1.90;;;18.70;83.10;;;;;;5109638;27;20406;-89